Time;durP1;ratioP1;P1;durP2;ratioP2;P2;SDS_P1;SDS_P2;PMS_P1;PMS_P2;Temp;Humidity;BMP_temperature;BMP_pressure;BME280_temperature;BME280_humidity;BME280_pressure;Samples;Min_cycle;Max_cycle;Signal;HPM_P1;HPM_P2
2023/03/04 00:00:53;;;;;;;20.17;11.33;;;1.10;85.40;;;;;;6238772;28;20213;-63
2023/03/04 00:03:54;;;;;;;16.33;11.10;;;1.00;85.40;;;;;;6233800;28;20206;-63
2023/03/04 00:06:55;;;;;;;17.07;10.83;;;1.00;85.50;;;;;;6249351;28;20190;-63
2023/03/04 00:09:55;;;;;;;13.97;9.87;;;1.00;85.70;;;;;;6249733;28;20281;-63
2023/03/04 00:12:56;;;;;;;19.20;10.90;;;1.00;85.80;;;;;;6240750;28;20214;-63
2023/03/04 00:15:57;;;;;;;15.73;10.97;;;1.00;86.10;;;;;;6250615;28;20192;-63
2023/03/04 00:18:58;;;;;;;16.13;11.40;;;1.00;86.20;;;;;;6229676;28;20199;-63
2023/03/04 00:21:59;;;;;;;14.30;9.97;;;1.00;86.10;;;;;;6247126;28;20190;-63
2023/03/04 00:24:59;;;;;;;13.87;9.13;;;0.90;86.20;;;;;;6258161;28;20185;-63
2023/03/04 00:28:00;;;;;;;15.83;9.80;;;0.90;86.00;;;;;;6252992;28;20224;-63
2023/03/04 00:31:01;;;;;;;15.57;10.67;;;0.90;86.00;;;;;;6244886;28;20209;-63
2023/03/04 00:34:01;;;;;;;15.97;10.17;;;0.90;85.80;;;;;;6263803;28;20254;-63
2023/03/04 00:37:02;;;;;;;16.93;10.87;;;0.90;85.80;;;;;;6244978;28;20193;-63
2023/03/04 00:40:04;;;;;;;15.33;10.20;;;0.90;85.70;;;;;;6264888;28;20191;-63
2023/03/04 00:43:04;;;;;;;14.13;10.23;;;0.90;85.70;;;;;;6260405;28;20193;-63
2023/03/04 00:46:05;;;;;;;13.73;8.87;;;0.90;85.50;;;;;;6240317;28;20198;-63
2023/03/04 00:49:06;;;;;;;13.47;9.17;;;0.80;85.40;;;;;;6255977;28;20191;-63
2023/03/04 00:52:07;;;;;;;14.17;10.03;;;0.80;85.60;;;;;;6244157;28;20217;-63
2023/03/04 00:55:08;;;;;;;13.37;9.03;;;0.80;85.60;;;;;;6246601;28;20181;-63
2023/03/04 00:58:09;;;;;;;14.20;9.33;;;0.80;85.60;;;;;;6259288;28;20193;-63
2023/03/04 01:01:09;;;;;;;13.93;10.10;;;0.80;85.40;;;;;;6263881;28;20217;-63
2023/03/04 01:04:10;;;;;;;14.17;9.10;;;0.70;85.00;;;;;;6263507;28;20199;-63
2023/03/04 01:07:11;;;;;;;14.23;10.17;;;0.60;85.30;;;;;;6265418;28;20201;-63
2023/03/04 01:10:14;;;;;;;12.57;9.27;;;0.60;85.10;;;;;;6239438;28;20193;-63
2023/03/04 01:13:14;;;;;;;11.70;8.80;;;0.60;85.10;;;;;;6263286;28;20224;-63
2023/03/04 01:16:15;;;;;;;14.57;8.97;;;0.60;85.00;;;;;;6256100;28;20186;-63
2023/03/04 01:19:16;;;;;;;13.90;9.70;;;0.60;84.60;;;;;;6263413;28;20189;-63
2023/03/04 01:22:17;;;;;;;15.67;10.07;;;0.60;84.30;;;;;;6251828;28;20293;-63
2023/03/04 01:25:18;;;;;;;14.77;9.73;;;0.50;84.80;;;;;;6262786;28;20216;-63
2023/03/04 01:28:19;;;;;;;13.90;9.07;;;0.40;85.00;;;;;;6264881;28;20247;-63
2023/03/04 01:31:20;;;;;;;13.10;9.23;;;0.30;85.30;;;;;;6249965;28;20256;-63
2023/03/04 01:34:20;;;;;;;11.93;8.80;;;0.30;85.70;;;;;;6253596;28;20188;-63
2023/03/04 01:37:21;;;;;;;12.53;9.07;;;0.30;85.70;;;;;;6256990;28;20186;-63
2023/03/04 01:40:22;;;;;;;13.80;9.07;;;0.20;85.60;;;;;;6274739;28;20277;-63
2023/03/04 01:43:26;;;;;;;14.60;9.00;;;0.20;85.90;;;;;;6250466;28;20194;-63
2023/03/04 01:46:27;;;;;;;14.60;9.27;;;0.20;85.80;;;;;;6262590;28;20186;-63
2023/03/04 01:49:28;;;;;;;13.33;9.07;;;0.20;85.50;;;;;;6253174;28;20187;-63
2023/03/04 01:52:29;;;;;;;15.63;9.83;;;0.00;85.80;;;;;;6253361;28;20218;-63
2023/03/04 01:55:30;;;;;;;16.40;9.10;;;0.00;85.90;;;;;;6263587;28;20190;-63
2023/03/04 01:58:32;;;;;;;11.53;8.33;;;0.00;85.80;;;;;;6250038;28;20182;-63
2023/03/04 02:01:33;;;;;;;13.83;8.83;;;0.00;85.90;;;;;;6258743;28;20212;-63
2023/03/04 02:04:34;;;;;;;12.10;8.80;;;0.00;86.10;;;;;;6250590;28;20182;-63
2023/03/04 02:07:34;;;;;;;14.23;8.63;;;0.00;86.20;;;;;;6242233;28;20186;-63
2023/03/04 02:10:36;;;;;;;13.60;9.03;;;0.00;86.20;;;;;;6256338;28;20342;-63
2023/03/04 02:13:36;;;;;;;15.23;9.13;;;0.00;86.20;;;;;;6265550;28;20194;-63
2023/03/04 02:16:37;;;;;;;15.43;9.27;;;0.00;86.10;;;;;;6253687;28;20188;-63
2023/03/04 02:19:42;;;;;;;15.13;9.60;;;0.00;85.90;;;;;;6255890;28;20256;-63
2023/03/04 02:22:56;;;;;;;14.27;10.03;;;0.00;85.70;;;;;;6257271;28;20245;-63
2023/03/04 02:26:19;;;;;;;12.70;8.20;;;0.00;85.30;;;;;;6263611;28;20198;-63
2023/03/04 02:29:21;;;;;;;16.63;9.20;;;0.00;85.30;;;;;;6277331;28;20264;-63
2023/03/04 02:32:21;;;;;;;13.33;9.23;;;-0.10;85.70;;;;;;6253748;28;20210;-63
2023/03/04 02:35:22;;;;;;;13.83;9.17;;;0.00;85.30;;;;;;6248519;28;20209;-63
2023/03/04 02:38:23;;;;;;;14.13;8.70;;;-0.10;85.30;;;;;;6257583;28;20185;-63
2023/03/04 02:41:26;;;;;;;13.70;8.57;;;-0.10;85.70;;;;;;6220220;28;20201;-63
2023/03/04 02:44:30;;;;;;;12.43;8.40;;;-0.10;85.50;;;;;;6261601;28;20293;-63
2023/03/04 02:47:31;;;;;;;15.47;9.53;;;-0.10;85.50;;;;;;6256211;28;20271;-63
2023/03/04 02:50:36;;;;;;;16.97;9.60;;;-0.20;85.50;;;;;;6256305;28;20215;-64
2023/03/04 02:53:37;;;;;;;13.97;9.00;;;-0.20;85.70;;;;;;6258098;28;20187;-64
2023/03/04 02:56:38;;;;;;;17.17;8.67;;;-0.20;85.60;;;;;;6255348;28;20268;-64
2023/03/04 02:59:39;;;;;;;15.97;9.77;;;-0.30;85.80;;;;;;6246656;28;20197;-64
2023/03/04 03:02:40;;;;;;;13.97;8.63;;;-0.30;85.50;;;;;;6262685;28;20253;-64
2023/03/04 03:05:41;;;;;;;11.40;8.30;;;-0.30;85.50;;;;;;6262451;28;20191;-64
2023/03/04 03:08:41;;;;;;;12.83;8.23;;;-0.30;85.80;;;;;;6243720;28;20201;-64
2023/03/04 03:11:42;;;;;;;11.63;8.93;;;-0.30;85.80;;;;;;6257319;28;20225;-64
2023/03/04 03:14:43;;;;;;;12.17;8.40;;;-0.40;85.90;;;;;;6270370;28;20182;-63
2023/03/04 03:17:44;;;;;;;17.67;9.37;;;-0.40;86.10;;;;;;6233197;28;20189;-63
2023/03/04 03:20:45;;;;;;;13.77;9.27;;;-0.40;86.20;;;;;;6254717;28;20188;-63
2023/03/04 03:23:46;;;;;;;13.07;9.77;;;-0.40;86.50;;;;;;6254052;28;20182;-63
2023/03/04 03:26:46;;;;;;;16.37;9.83;;;-0.40;86.80;;;;;;6249398;28;20194;-63
2023/03/04 03:29:47;;;;;;;14.77;8.73;;;-0.40;86.80;;;;;;6245213;28;20319;-63
2023/03/04 03:32:48;;;;;;;14.00;9.00;;;-0.50;86.80;;;;;;6254854;28;20212;-63
2023/03/04 03:35:48;;;;;;;12.07;7.77;;;-0.50;86.50;;;;;;6250981;28;20189;-63
2023/03/04 03:38:49;;;;;;;14.97;8.57;;;-0.50;86.50;;;;;;6245923;28;20210;-63
2023/03/04 03:41:50;;;;;;;11.43;8.20;;;-0.50;86.50;;;;;;6249480;28;20255;-63
2023/03/04 03:44:51;;;;;;;13.13;9.63;;;-0.50;86.50;;;;;;6241426;28;20194;-63
2023/03/04 03:47:51;;;;;;;13.10;8.93;;;-0.60;86.60;;;;;;6248244;28;20189;-63
2023/03/04 03:50:52;;;;;;;13.73;9.27;;;-0.60;86.80;;;;;;6237679;28;20293;-63
2023/03/04 03:53:53;;;;;;;14.47;9.67;;;-0.60;86.90;;;;;;6253760;28;20243;-63
2023/03/04 03:56:53;;;;;;;13.83;8.70;;;-0.60;86.90;;;;;;6256868;28;20189;-63
2023/03/04 03:59:55;;;;;;;11.70;8.67;;;-0.60;86.90;;;;;;6256232;28;20267;-63
2023/03/04 04:02:58;;;;;;;13.83;9.40;;;-0.60;86.90;;;;;;6257898;28;20246;-63
2023/03/04 04:05:59;;;;;;;15.87;9.33;;;-0.60;86.90;;;;;;6260275;28;20270;-63
2023/03/04 04:09:00;;;;;;;15.10;9.00;;;-0.60;86.80;;;;;;6251861;28;20204;-63
2023/03/04 04:12:00;;;;;;;16.20;10.43;;;-0.60;86.80;;;;;;6248341;28;20209;-63
2023/03/04 04:15:01;;;;;;;15.07;9.07;;;-0.70;86.80;;;;;;6254984;28;20194;-63
2023/03/04 04:18:02;;;;;;;15.83;9.30;;;-0.70;86.70;;;;;;6244720;28;20240;-63
2023/03/04 04:21:03;;;;;;;15.97;9.37;;;-0.70;86.70;;;;;;6245516;28;20194;-63
2023/03/04 04:24:04;;;;;;;12.30;8.93;;;-0.70;86.70;;;;;;6253715;28;20186;-63
2023/03/04 04:27:05;;;;;;;12.63;9.27;;;-0.70;86.80;;;;;;6253252;28;20190;-63
2023/03/04 04:30:06;;;;;;;13.13;9.00;;;-0.70;86.70;;;;;;6221988;28;20277;-63
2023/03/04 04:33:09;;;;;;;14.33;8.60;;;-0.70;86.60;;;;;;6242686;28;20218;-63
2023/03/04 04:36:13;;;;;;;13.60;9.13;;;-0.70;86.70;;;;;;6267681;28;20192;-63
2023/03/04 04:39:14;;;;;;;15.20;9.13;;;-0.70;87.00;;;;;;6261272;28;20255;-63
2023/03/04 04:42:15;;;;;;;13.13;9.03;;;-0.70;86.80;;;;;;6248184;28;20194;-63
2023/03/04 04:45:15;;;;;;;14.97;10.77;;;-0.70;87.10;;;;;;6254434;28;20285;-63
2023/03/04 04:48:16;;;;;;;20.17;9.93;;;-0.70;87.10;;;;;;6269463;28;20181;-63
2023/03/04 04:51:17;;;;;;;16.33;9.13;;;-0.70;86.70;;;;;;6259709;28;20301;-63
2023/03/04 04:54:18;;;;;;;18.33;9.30;;;-0.70;86.20;;;;;;6254687;28;20190;-63
2023/03/04 04:57:18;;;;;;;14.70;8.73;;;-0.70;85.80;;;;;;6276561;28;20193;-63
2023/03/04 05:00:20;;;;;;;12.60;9.43;;;-0.80;86.00;;;;;;6257086;28;20195;-63
2023/03/04 05:03:20;;;;;;;16.53;9.63;;;-0.90;86.20;;;;;;6253601;28;20204;-63
2023/03/04 05:06:22;;;;;;;13.60;9.53;;;-0.90;86.00;;;;;;6249227;28;20218;-63
2023/03/04 05:09:23;;;;;;;13.43;8.87;;;-0.90;86.10;;;;;;6265996;28;20194;-63
2023/03/04 05:12:24;;;;;;;13.70;10.10;;;-0.90;86.40;;;;;;6265875;28;20236;-63
2023/03/04 05:15:25;;;;;;;13.93;9.33;;;-0.90;86.60;;;;;;6247787;28;20191;-63
2023/03/04 05:18:26;;;;;;;18.40;11.10;;;-0.90;86.80;;;;;;6259092;28;20196;-63
2023/03/04 05:21:26;;;;;;;19.93;9.07;;;-0.90;86.70;;;;;;6266788;28;20190;-63
2023/03/04 05:24:27;;;;;;;13.63;9.20;;;-0.90;86.80;;;;;;6246752;28;20196;-63
2023/03/04 05:27:28;;;;;;;15.40;9.17;;;-0.90;86.80;;;;;;6233379;28;20190;-63
2023/03/04 05:30:29;;;;;;;15.33;10.47;;;-1.00;86.80;;;;;;6247267;28;20308;-63
2023/03/04 05:33:30;;;;;;;15.83;10.10;;;-1.00;86.60;;;;;;6254244;28;20288;-61
2023/03/04 05:36:30;;;;;;;15.73;10.17;;;-1.00;86.80;;;;;;6241860;28;20211;-60
2023/03/04 05:39:31;;;;;;;14.40;10.13;;;-0.80;86.10;;;;;;6268364;28;20200;-60
2023/03/04 05:42:32;;;;;;;15.23;10.10;;;-0.90;85.90;;;;;;6235016;28;20197;-60
2023/03/04 05:45:33;;;;;;;12.93;8.80;;;-0.90;85.90;;;;;;6237604;28;20192;-60
2023/03/04 05:48:33;;;;;;;16.43;9.27;;;-0.90;86.00;;;;;;6264731;28;20186;-61
2023/03/04 05:51:34;;;;;;;17.23;11.03;;;-0.90;85.90;;;;;;6252381;28;20240;-60
2023/03/04 05:54:35;;;;;;;19.23;10.30;;;-0.90;85.70;;;;;;6264688;28;20186;-60
2023/03/04 05:57:36;;;;;;;13.83;9.47;;;-0.90;85.70;;;;;;6254953;28;20194;-60
2023/03/04 06:00:36;;;;;;;14.67;10.47;;;-0.90;85.80;;;;;;6247315;28;20192;-60
2023/03/04 06:03:37;;;;;;;15.50;8.63;;;-0.80;85.60;;;;;;6226773;28;20190;-60
2023/03/04 06:06:38;;;;;;;11.93;8.77;;;-0.80;85.50;;;;;;6263246;28;20200;-60
2023/03/04 06:09:39;;;;;;;14.00;9.27;;;-0.80;85.50;;;;;;6225358;28;20221;-60
2023/03/04 06:12:40;;;;;;;14.10;9.60;;;-0.70;85.40;;;;;;6269061;28;20206;-61
2023/03/04 06:15:41;;;;;;;12.43;9.23;;;-0.70;85.40;;;;;;6234649;28;20198;-61
2023/03/04 06:18:41;;;;;;;16.37;9.20;;;-0.70;85.10;;;;;;6259431;28;20215;-61
2023/03/04 06:21:42;;;;;;;14.63;9.00;;;-0.70;85.10;;;;;;6249599;28;20281;-61
2023/03/04 06:24:43;;;;;;;12.47;9.13;;;-0.70;85.10;;;;;;6261574;28;20190;-61
2023/03/04 06:27:43;;;;;;;17.07;9.20;;;-0.70;85.10;;;;;;6227689;28;20201;-61
2023/03/04 06:30:44;;;;;;;16.97;9.90;;;-0.60;85.30;;;;;;6264104;28;20214;-61
2023/03/04 06:33:45;;;;;;;16.03;9.63;;;-0.60;85.10;;;;;;6260819;28;20210;-61
2023/03/04 06:36:46;;;;;;;15.17;10.20;;;-0.50;85.20;;;;;;6253117;28;20198;-61
2023/03/04 06:39:46;;;;;;;16.00;9.37;;;-0.50;85.10;;;;;;6255275;28;20205;-61
2023/03/04 06:42:47;;;;;;;15.67;9.53;;;-0.50;85.00;;;;;;6255781;28;20197;-61
2023/03/04 06:45:48;;;;;;;14.97;9.63;;;-0.40;85.20;;;;;;6262275;28;20228;-61
2023/03/04 06:48:49;;;;;;;12.43;9.23;;;-0.40;85.60;;;;;;6238072;28;20196;-60
2023/03/04 06:51:50;;;;;;;14.80;9.90;;;-0.30;85.60;;;;;;6237190;28;20303;-60
2023/03/04 06:54:50;;;;;;;15.73;9.97;;;-0.30;85.80;;;;;;6253567;28;20202;-61
2023/03/04 06:57:51;;;;;;;17.00;9.93;;;-0.20;85.90;;;;;;6247707;28;20193;-61
2023/03/04 07:00:52;;;;;;;15.50;9.87;;;-0.10;86.00;;;;;;6258663;28;20191;-61
2023/03/04 07:03:53;;;;;;;14.47;10.40;;;-0.10;86.10;;;;;;6251444;28;20190;-61
2023/03/04 07:06:54;;;;;;;20.90;10.57;;;0.00;86.20;;;;;;6260137;28;20194;-61
2023/03/04 07:09:54;;;;;;;15.87;9.37;;;0.00;86.20;;;;;;6263736;28;20194;-61
2023/03/04 07:12:55;;;;;;;15.13;9.90;;;0.10;86.00;;;;;;6264371;28;20208;-61
2023/03/04 07:15:56;;;;;;;15.67;9.90;;;0.20;85.70;;;;;;6259516;28;20191;-62
2023/03/04 07:18:57;;;;;;;20.63;10.37;;;0.30;85.40;;;;;;6257322;28;20224;-60
2023/03/04 07:21:57;;;;;;;15.70;10.17;;;0.40;85.10;;;;;;6266489;28;20188;-60
2023/03/04 07:24:58;;;;;;;14.10;10.43;;;0.50;84.70;;;;;;6243966;28;20277;-61
2023/03/04 07:27:59;;;;;;;16.93;11.30;;;0.60;84.30;;;;;;6244804;28;20216;-62
2023/03/04 07:31:12;;;;;;;19.67;11.60;;;0.60;84.00;;;;;;6227705;28;20290;-60
2023/03/04 07:34:13;;;;;;;14.50;10.53;;;0.80;83.40;;;;;;6264047;28;20190;-61
2023/03/04 07:37:14;;;;;;;18.50;11.57;;;0.90;83.00;;;;;;6272279;28;20192;-62
2023/03/04 07:40:15;;;;;;;18.27;11.37;;;1.00;83.00;;;;;;6231143;28;20182;-61
2023/03/04 07:43:16;;;;;;;19.53;11.03;;;1.00;83.00;;;;;;6236496;28;20270;-61
2023/03/04 07:46:19;;;;;;;19.73;11.57;;;;;;;;;;6239223;28;20201;-62
2023/03/04 07:49:20;;;;;;;15.20;10.23;;;;;;;;;;6260065;28;20202;-61
2023/03/04 07:52:22;;;;;;;19.10;10.93;;;;;;;;;;6248823;28;20217;-61
2023/03/04 07:55:23;;;;;;;14.67;11.33;;;;;;;;;;6245501;28;20219;-61
2023/03/04 07:58:24;;;;;;;20.47;10.80;;;;;;;;;;6245311;28;20193;-61
2023/03/04 08:01:27;;;;;;;18.07;10.93;;;;;;;;;;6252437;28;20222;-60
2023/03/04 08:04:28;;;;;;;18.87;11.43;;;;;;;;;;6257586;28;20237;-61
2023/03/04 08:07:29;;;;;;;19.10;11.00;;;;;;;;;;6241585;28;20190;-61
2023/03/04 08:10:30;;;;;;;16.67;11.27;;;;;;;;;;6266453;28;20190;-61
2023/03/04 08:13:31;;;;;;;19.20;11.23;;;1.30;82.00;;;;;;6272878;28;20213;-62
2023/03/04 08:16:31;;;;;;;18.30;11.63;;;2.40;77.50;;;;;;6247789;28;20200;-62
2023/03/04 08:19:32;;;;;;;17.30;11.70;;;2.50;77.00;;;;;;6274955;28;20189;-62
2023/03/04 08:22:33;;;;;;;21.10;13.47;;;2.70;76.70;;;;;;6253760;28;20289;-62
2023/03/04 08:25:33;;;;;;;17.77;11.57;;;2.90;75.70;;;;;;6251603;28;20194;-60
2023/03/04 08:28:35;;;;;;;19.73;13.07;;;3.20;74.00;;;;;;6246839;28;20230;-60
2023/03/04 08:31:37;;;;;;;22.23;13.40;;;3.30;73.90;;;;;;6260813;28;20249;-59
2023/03/04 08:34:38;;;;;;;21.73;12.93;;;3.50;73.70;;;;;;6244605;28;20258;-59
2023/03/04 08:37:39;;;;;;;17.80;11.83;;;3.50;73.50;;;;;;6277090;28;20192;-59
2023/03/04 08:40:40;;;;;;;17.10;12.33;;;3.50;74.00;;;;;;6242973;28;20213;-59
2023/03/04 08:43:41;;;;;;;18.00;11.97;;;3.60;73.80;;;;;;6249452;28;20194;-57
2023/03/04 08:46:42;;;;;;;23.17;13.23;;;3.70;73.60;;;;;;6253945;28;20205;-59
2023/03/04 08:49:43;;;;;;;17.50;12.10;;;3.80;73.00;;;;;;6247802;28;20273;-59
2023/03/04 08:52:43;;;;;;;20.67;12.57;;;4.00;72.20;;;;;;6267302;28;20206;-59
2023/03/04 08:55:44;;;;;;;17.87;12.53;;;4.10;72.40;;;;;;6263676;28;20240;-59
2023/03/04 08:58:45;;;;;;;18.83;13.30;;;4.20;70.90;;;;;;6270329;28;20186;-59
2023/03/04 09:01:46;;;;;;;17.57;12.70;;;4.40;71.00;;;;;;6258595;28;20192;-59
2023/03/04 09:04:47;;;;;;;18.83;12.80;;;4.50;70.30;;;;;;6239858;28;20248;-59
2023/03/04 09:07:47;;;;;;;20.20;13.57;;;4.70;70.80;;;;;;6241560;28;20191;-59
2023/03/04 09:10:51;;;;;;;16.33;13.10;;;4.70;71.70;;;;;;6257298;28;20281;-59
2023/03/04 09:13:52;;;;;;;17.50;13.60;;;4.70;71.60;;;;;;6266562;28;20186;-59
2023/03/04 09:16:53;;;;;;;17.10;11.90;;;5.00;71.20;;;;;;6240637;28;20186;-59
2023/03/04 09:19:53;;;;;;;16.27;12.53;;;5.10;69.70;;;;;;6243498;28;20196;-59
2023/03/04 09:22:54;;;;;;;18.90;12.67;;;5.30;69.10;;;;;;6260862;28;20195;-59
2023/03/04 09:25:55;;;;;;;22.47;13.23;;;5.40;68.20;;;;;;6235552;28;20193;-59
2023/03/04 09:28:59;;;;;;;16.57;12.43;;;5.60;68.30;;;;;;6252949;28;20241;-59
2023/03/04 09:31:59;;;;;;;17.20;11.70;;;5.80;68.60;;;;;;6264511;28;20206;-59
2023/03/04 09:35:01;;;;;;;14.20;11.23;;;5.70;69.20;;;;;;6224664;28;20210;-59
2023/03/04 09:38:05;;;;;;;13.17;11.10;;;;;;;;;;6263001;28;20190;-60
2023/03/04 09:41:14;;;;;;;17.80;12.37;;;;;;;;;;6254883;28;20276;-60
2023/03/04 09:44:15;;;;;;;17.97;12.53;;;;;;;;;;6263431;28;20186;-60
2023/03/04 09:47:17;;;;;;;17.27;11.90;;;;;;;;;;6266758;28;20186;-59
2023/03/04 09:50:19;;;;;;;16.37;12.63;;;;;;;;;;6267046;28;20191;-59
2023/03/04 09:53:22;;;;;;;14.97;11.90;;;;;;;;;;6270880;28;20241;-59
2023/03/04 09:56:25;;;;;;;14.27;11.57;;;;;;;;;;6259644;28;20201;-59
2023/03/04 09:59:26;;;;;;;18.37;12.13;;;;;;;;;;6261941;28;20187;-59
2023/03/04 10:02:33;;;;;;;16.27;11.07;;;;;;;;;;6259583;28;20201;-59
2023/03/04 10:05:37;;;;;;;17.10;11.47;;;;;;;;;;6266527;28;20408;-60
2023/03/04 10:08:53;;;;;;;18.00;11.30;;;;;;;;;;6266306;28;20218;-59
2023/03/04 10:12:10;;;;;;;15.13;10.10;;;5.70;69.80;;;;;;6250899;28;20213;-59
2023/03/04 10:15:17;;;;;;;13.20;10.10;;;7.00;66.50;;;;;;6279043;28;20281;-59
2023/03/04 10:18:21;;;;;;;12.63;8.40;;;7.30;67.10;;;;;;6266326;28;20190;-60
2023/03/04 10:21:41;;;;;;;14.07;8.80;;;7.40;66.40;;;;;;6278932;28;20210;-60
2023/03/04 10:24:45;;;;;;;14.07;8.97;;;;;;;;;;6266503;28;20195;-60
2023/03/04 10:27:54;;;;;;;12.27;8.20;;;7.50;65.80;;;;;;6257691;28;20213;-60
2023/03/04 10:31:06;;;;;;;11.97;7.67;;;7.80;64.50;;;;;;6278569;28;20198;-59
2023/03/04 10:34:11;;;;;;;12.70;9.13;;;7.80;64.50;;;;;;6258277;28;20280;-59
2023/03/04 10:37:11;;;;;;;22.13;12.83;;;8.00;65.20;;;;;;6266141;28;20187;-60
2023/03/04 10:40:21;;;;;;;19.13;12.20;;;8.20;65.30;;;;;;6241461;28;20197;-59
2023/03/04 10:43:22;;;;;;;19.17;12.87;;;8.40;63.50;;;;;;6251793;28;20184;-60
2023/03/04 10:46:22;;;;;;;13.73;9.40;;;8.50;63.30;;;;;;6243487;28;20182;-60
2023/03/04 10:49:24;;;;;;;11.77;8.47;;;8.60;62.70;;;;;;6261589;28;20190;-60
2023/03/04 10:52:39;;;;;;;11.53;7.53;;;8.80;61.30;;;;;;6261410;28;20210;-60
2023/03/04 10:55:44;;;;;;;10.87;6.73;;;9.00;58.30;;;;;;6249275;28;20241;-61
2023/03/04 10:58:44;;;;;;;11.40;6.00;;;9.00;60.40;;;;;;6260245;28;20194;-60
2023/03/04 11:01:45;;;;;;;7.83;6.03;;;9.20;58.30;;;;;;6248471;28;20276;-60
2023/03/04 11:04:52;;;;;;;7.50;5.30;;;9.40;56.30;;;;;;6258190;28;20193;-60
2023/03/04 11:07:57;;;;;;;10.83;5.67;;;9.50;55.40;;;;;;6251769;28;20307;-60
2023/03/04 11:10:58;;;;;;;10.67;5.30;;;9.70;54.70;;;;;;6263175;28;20195;-60
2023/03/04 11:14:02;;;;;;;6.13;5.33;;;9.90;54.40;;;;;;6250561;28;20178;-60
2023/03/04 11:17:21;;;;;;;10.80;5.83;;;10.20;53.50;;;;;;6257140;28;20186;-60
2023/03/04 11:20:36;;;;;;;7.50;4.27;;;10.30;53.00;;;;;;6250109;28;20190;-60
2023/03/04 11:24:24;;;;;;;7.43;4.87;;;10.30;53.80;;;;;;6256974;28;20183;-59
2023/03/04 11:27:33;;;;;;;9.93;5.87;;;10.40;52.60;;;;;;6240717;28;20209;-59
2023/03/04 11:30:42;;;;;;;10.27;5.30;;;10.70;50.90;;;;;;6260140;28;20235;-60
2023/03/04 11:34:06;;;;;;;7.13;4.47;;;10.80;50.30;;;;;;6259378;28;20215;-60
2023/03/04 11:37:26;;;;;;;9.33;4.47;;;10.90;50.10;;;;;;6261944;28;20188;-60
2023/03/04 11:40:52;;;;;;;7.50;4.80;;;11.00;50.00;;;;;;6251365;28;20183;-60
2023/03/04 11:43:53;;;;;;;9.97;4.93;;;11.20;48.30;;;;;;6268287;28;20190;-60
2023/03/04 11:46:57;;;;;;;9.90;5.40;;;11.50;47.60;;;;;;6231474;28;20191;-60
2023/03/04 11:50:13;;;;;;;14.10;5.43;;;11.70;46.00;;;;;;6261749;28;20191;-60
2023/03/04 11:53:45;;;;;;;10.23;5.27;;;11.90;45.10;;;;;;6246496;28;20210;-61
2023/03/04 11:56:52;;;;;;;12.93;4.93;;;12.30;43.60;;;;;;6250738;28;20186;-61
2023/03/04 12:00:47;;;;;;;8.67;5.17;;;12.50;43.50;;;;;;6259702;28;20189;-61
2023/03/04 12:04:06;;;;;;;11.53;5.00;;;12.70;44.40;;;;;;6224743;28;20210;-61
2023/03/04 12:07:47;;;;;;;7.50;4.27;;;13.00;42.20;;;;;;6265006;28;20186;-60
2023/03/04 12:11:09;;;;;;;8.60;4.47;;;13.20;43.00;;;;;;6265795;28;20205;-64
2023/03/04 12:14:32;;;;;;;8.37;4.37;;;13.50;42.90;;;;;;6261246;28;20187;-64
2023/03/04 12:17:36;;;;;;;6.13;4.30;;;13.60;42.90;;;;;;6249666;28;20187;-62
2023/03/04 12:20:42;;;;;;;11.87;4.20;;;13.90;41.40;;;;;;6257771;28;20273;-61
2023/03/04 12:24:10;;;;;;;5.67;4.03;;;14.10;42.30;;;;;;6248302;28;20191;-60
2023/03/04 12:27:26;;;;;;;13.03;5.57;;;14.40;39.80;;;;;;6264428;28;20233;-62
2023/03/04 12:31:01;;;;;;;10.87;4.10;;;14.60;38.60;;;;;;6265588;28;20257;-62
2023/03/04 12:34:20;;;;;;;9.67;5.07;;;14.80;38.70;;;;;;6246493;28;20187;-60
2023/03/04 12:38:08;;;;;;;8.83;4.63;;;15.00;39.50;;;;;;6259487;28;20189;-61
2023/03/04 12:41:42;;;;;;;10.53;4.80;;;15.20;38.70;;;;;;6264562;28;20190;-61
2023/03/04 12:44:56;;;;;;;7.20;4.30;;;15.30;38.60;;;;;;6263264;28;20194;-61
2023/03/04 12:48:18;;;;;;;9.97;4.80;;;15.50;39.10;;;;;;6262696;28;20267;-61
2023/03/04 12:51:29;;;;;;;7.43;4.53;;;15.80;37.70;;;;;;6263223;28;20186;-60
2023/03/04 12:54:38;;;;;;;10.77;4.30;;;15.90;36.80;;;;;;6246244;28;20184;-60
2023/03/04 12:57:39;;;;;;;12.97;4.53;;;16.00;36.50;;;;;;6248496;28;20195;-60
2023/03/04 13:00:49;;;;;;;11.10;4.40;;;16.40;36.10;;;;;;6238644;28;20205;-60
2023/03/04 13:04:08;;;;;;;7.93;3.80;;;16.50;35.00;;;;;;6266701;28;20202;-60
2023/03/04 13:08:05;;;;;;;10.43;4.30;;;16.60;35.00;;;;;;6258469;28;20195;-60
2023/03/04 13:11:49;;;;;;;7.67;3.70;;;17.00;35.10;;;;;;6252726;28;20281;-60
2023/03/04 13:15:07;;;;;;;7.70;3.70;;;17.50;33.00;;;;;;6233525;28;20180;-61
2023/03/04 13:18:30;;;;;;;10.03;4.90;;;17.60;33.10;;;;;;6266075;28;20195;-60
2023/03/04 13:21:31;;;;;;;7.63;3.80;;;17.90;33.30;;;;;;6260222;28;20199;-60
2023/03/04 13:24:49;;;;;;;10.90;4.07;;;18.10;33.20;;;;;;6261852;28;20354;-61
2023/03/04 13:28:10;;;;;;;12.30;4.63;;;18.40;32.30;;;;;;6245698;28;20199;-60
2023/03/04 13:31:17;;;;;;;8.10;4.17;;;18.80;32.30;;;;;;6266149;28;20201;-60
2023/03/04 13:34:54;;;;;;;6.93;4.27;;;19.20;32.20;;;;;;6255908;28;20218;-60
2023/03/04 13:37:57;;;;;;;9.40;3.77;;;19.40;31.10;;;;;;6262597;28;20182;-60
2023/03/04 13:41:06;;;;;;;8.63;3.70;;;19.40;31.00;;;;;;6252828;28;20198;-60
2023/03/04 13:44:33;;;;;;;9.30;4.17;;;19.40;31.10;;;;;;6259605;28;20183;-60
2023/03/04 13:47:44;;;;;;;11.40;4.53;;;19.50;30.40;;;;;;6261556;28;20190;-61
2023/03/04 13:50:47;;;;;;;8.83;3.70;;;19.70;30.10;;;;;;6256808;28;20197;-61
2023/03/04 13:54:06;;;;;;;14.17;4.47;;;20.00;29.00;;;;;;6266481;28;20252;-61
2023/03/04 13:57:18;;;;;;;8.57;3.90;;;20.20;27.80;;;;;;6277702;28;20210;-61
2023/03/04 14:00:19;;;;;;;6.63;4.00;;;20.60;28.10;;;;;;6265728;28;20276;-61
2023/03/04 14:03:25;;;;;;;10.90;4.13;;;21.10;28.00;;;;;;6266169;28;20191;-61
2023/03/04 14:06:27;;;;;;;7.23;3.50;;;22.00;27.00;;;;;;6250174;28;20225;-60
2023/03/04 14:09:30;;;;;;;8.63;4.00;;;23.00;27.50;;;;;;6263075;28;20177;-60
2023/03/04 14:12:50;;;;;;;13.10;3.90;;;24.30;25.10;;;;;;6257135;28;20221;-61
2023/03/04 14:15:55;;;;;;;10.27;4.17;;;;;;;;;;6257088;28;20187;-61
2023/03/04 14:18:57;;;;;;;7.23;3.40;;;;;;;;;;6252098;28;20186;-61
2023/03/04 14:21:59;;;;;;;12.90;3.97;;;;;;;;;;6247527;28;20205;-61
2023/03/04 14:25:06;;;;;;;10.43;4.13;;;;;;;;;;6257071;28;20189;-61
2023/03/04 14:28:12;;;;;;;8.03;4.10;;;;;;;;;;6260210;28;20241;-61
2023/03/04 14:31:17;;;;;;;7.77;4.00;;;;;;;;;;6255880;28;20320;-61
2023/03/04 14:34:39;;;;;;;8.23;3.80;;;;;;;;;;6265752;28;20187;-60
2023/03/04 14:37:47;;;;;;;8.47;3.47;;;;;;;;;;6256764;28;20217;-59
2023/03/04 14:40:52;;;;;;;9.77;3.33;;;28.90;21.50;;;;;;6250053;28;20187;-59
2023/03/04 14:44:05;;;;;;;10.53;3.87;;;29.10;21.50;;;;;;6263874;28;20201;-60
2023/03/04 14:47:39;;;;;;;7.63;4.00;;;;;;;;;;6258970;28;20222;-63
2023/03/04 14:50:47;;;;;;;8.40;3.83;;;;;;;;;;6244222;28;20236;-63
2023/03/04 14:53:54;;;;;;;7.23;3.87;;;28.60;22.30;;;;;;6259678;28;20221;-64
2023/03/04 14:56:56;;;;;;;9.83;3.63;;;27.90;23.50;;;;;;6255234;28;20195;-64
2023/03/04 15:00:14;;;;;;;9.10;4.10;;;27.80;23.10;;;;;;6269881;28;20182;-64
2023/03/04 15:03:27;;;;;;;7.20;3.47;;;28.10;23.30;;;;;;6260760;28;20199;-64
2023/03/04 15:06:32;;;;;;;10.03;4.73;;;28.50;22.50;;;;;;6266103;28;20226;-64
2023/03/04 15:09:33;;;;;;;6.83;4.30;;;28.40;22.30;;;;;;6262173;28;20186;-65
2023/03/04 15:12:36;;;;;;;8.43;4.60;;;27.80;23.50;;;;;;6268695;28;20282;-64
2023/03/04 15:15:46;;;;;;;8.57;4.23;;;28.00;23.00;;;;;;6262179;28;20189;-64
2023/03/04 15:18:54;;;;;;;8.00;4.20;;;;;;;;;;6247319;28;20203;-63
2023/03/04 15:22:03;;;;;;;7.37;3.87;;;;;;;;;;6255569;28;20194;-63
2023/03/04 15:25:04;;;;;;;7.17;4.07;;;27.60;23.30;;;;;;6252613;28;20198;-62
2023/03/04 15:28:11;;;;;;;9.47;4.07;;;25.60;23.90;;;;;;6253178;28;20201;-61
2023/03/04 15:31:17;;;;;;;9.93;4.50;;;25.70;24.20;;;;;;6267934;28;20185;-64
2023/03/04 15:34:19;;;;;;;7.73;4.03;;;26.10;23.60;;;;;;6251028;28;20186;-59
2023/03/04 15:37:25;;;;;;;7.23;3.97;;;;;;;;;;6266960;28;20177;-58
2023/03/04 15:40:26;;;;;;;7.13;4.37;;;;;;;;;;6260313;28;20179;-58
2023/03/04 15:43:27;;;;;;;6.97;3.80;;;;;;;;;;6259869;28;20189;-58
2023/03/04 15:46:29;;;;;;;9.03;3.40;;;;;;;;;;6259700;28;20182;-58
2023/03/04 15:49:30;;;;;;;5.47;3.07;;;;;;;;;;6252586;28;20217;-58
2023/03/04 15:52:32;;;;;;;4.63;3.10;;;;;;;;;;6251050;28;20218;-58
2023/03/04 15:55:34;;;;;;;8.57;3.00;;;;;;;;;;6266314;28;20193;-58
2023/03/04 15:58:38;;;;;;;6.33;3.07;;;;;;;;;;6268483;28;20190;-58
2023/03/04 16:01:40;;;;;;;6.87;3.10;;;;;;;;;;6256736;28;20183;-58
2023/03/04 16:04:42;;;;;;;7.27;2.90;;;;;;;;;;6248376;28;20293;-58
2023/03/04 16:07:46;;;;;;;6.10;2.90;;;;;;;;;;6248840;28;20195;-58
2023/03/04 16:10:48;;;;;;;7.77;2.80;;;;;;;;;;6252661;28;20217;-57
2023/03/04 16:13:49;;;;;;;9.00;3.50;;;;;;;;;;6251057;28;20206;-57